createdAt,value
2019-06-27T00:02:20.343Z,18.44
2019-06-27T00:07:17.429Z,18.31
2019-06-27T00:12:14.121Z,18.22
2019-06-27T00:17:09.545Z,18.10
2019-06-27T00:22:06.432Z,18.08
2019-06-27T00:27:01.818Z,18.13
2019-06-27T00:31:57.782Z,17.92
2019-06-27T00:36:54.504Z,17.64
2019-06-27T00:41:49.917Z,17.86
2019-06-27T00:46:45.735Z,17.95
2019-06-27T00:51:45.227Z,18.18
2019-06-27T00:56:40.404Z,18.18
2019-06-27T01:01:36.276Z,18.11
2019-06-27T01:06:32.530Z,18.03
2019-06-27T01:11:28.273Z,17.98
2019-06-27T01:16:24.349Z,18.04
2019-06-27T01:21:21.234Z,17.97
2019-06-27T01:26:16.768Z,17.51
2019-06-27T01:31:12.710Z,17.86
2019-06-27T01:36:08.552Z,17.72
2019-06-27T01:41:04.334Z,17.71
2019-06-27T01:46:00.025Z,17.85
2019-06-27T01:50:57.065Z,17.94
2019-06-27T01:55:52.695Z,17.98
2019-06-27T02:00:48.411Z,17.80
2019-06-27T02:05:44.097Z,17.86
2019-06-27T02:10:40.103Z,17.71
2019-06-27T02:15:37.026Z,18.16
2019-06-27T02:20:32.700Z,17.78
2019-06-27T02:25:28.479Z,17.95
2019-06-27T02:30:24.203Z,17.85
2019-06-27T02:35:20.446Z,17.86
2019-06-27T02:40:16.242Z,17.31
2019-06-27T02:45:11.696Z,17.38
2019-06-27T02:50:07.522Z,17.22
2019-06-27T02:55:03.333Z,16.93
2019-06-27T02:59:58.678Z,16.76
2019-06-27T03:04:54.834Z,17.15
2019-06-27T03:09:50.910Z,17.31
2019-06-27T03:14:46.745Z,16.64
2019-06-27T03:19:42.476Z,16.58
2019-06-27T03:24:39.472Z,16.64
2019-06-27T03:29:35.115Z,16.87
2019-06-27T03:34:31.133Z,16.66
2019-06-27T03:39:26.965Z,16.64
2019-06-27T03:44:22.840Z,16.54
2019-06-27T03:49:18.626Z,17.06
2019-06-27T03:54:14.629Z,17.29
2019-06-27T03:59:13.655Z,17.59
2019-06-27T04:04:08.868Z,17.56
2019-06-27T04:09:05.702Z,17.31
2019-06-27T04:14:02.949Z,17.45
2019-06-27T04:18:58.477Z,17.19
2019-06-27T04:23:54.165Z,16.84
2019-06-27T04:28:50.507Z,16.90
2019-06-27T04:33:47.773Z,16.41
2019-06-27T04:38:43.089Z,16.61
2019-06-27T04:43:38.979Z,16.39
2019-06-27T04:48:34.964Z,16.08
2019-06-27T04:53:31.604Z,15.95
2019-06-27T04:58:27.996Z,16.15
2019-06-27T05:03:23.451Z,15.97
2019-06-27T05:08:19.455Z,16.41
2019-06-27T05:13:16.946Z,16.96
2019-06-27T05:18:14.210Z,17.36
2019-06-27T05:23:10.652Z,17.68
2019-06-27T05:28:07.309Z,17.44
2019-06-27T05:33:03.315Z,16.94
2019-06-27T05:38:00.157Z,17.34
2019-06-27T05:42:56.492Z,17.85
2019-06-27T05:47:54.295Z,19.24
2019-06-27T05:52:53.766Z,20.18
2019-06-27T05:57:50.932Z,20.21
2019-06-27T06:02:45.382Z,19.52
2019-06-27T06:07:40.226Z,18.96
2019-06-27T06:12:36.625Z,18.99
2019-06-27T06:17:32.968Z,18.92
2019-06-27T06:22:28.482Z,18.81
2019-06-27T06:27:25.069Z,18.92
2019-06-27T06:32:20.650Z,19.11
2019-06-27T06:37:16.977Z,18.96
2019-06-27T06:42:12.277Z,18.11
2019-06-27T06:47:07.279Z,17.44
2019-06-27T06:52:02.698Z,17.64
2019-06-27T06:56:58.068Z,17.33
2019-06-27T07:01:53.487Z,16.93
2019-06-27T07:06:48.843Z,16.84
2019-06-27T07:11:44.872Z,16.93
2019-06-27T07:16:41.748Z,17.38
2019-06-27T07:21:37.146Z,17.49
2019-06-27T07:26:33.371Z,17.49
2019-06-27T07:31:29.779Z,17.68
2019-06-27T07:36:25.715Z,17.82
2019-06-27T07:41:22.126Z,17.97
2019-06-27T07:46:24.985Z,18.28
2019-06-27T07:51:19.226Z,20.09
2019-06-27T07:56:19.567Z,21.70
2019-06-27T08:01:34.006Z,22.70
2019-06-27T08:06:19.602Z,22.08
2019-06-27T08:11:16.002Z,21.12
2019-06-27T08:16:13.677Z,21.80
2019-06-27T08:21:10.154Z,23.03
2019-06-27T08:26:08.464Z,24.06
2019-06-27T08:31:05.483Z,24.21
2019-06-27T08:36:01.745Z,24.08
2019-06-27T08:40:58.014Z,22.93
2019-06-27T08:45:53.692Z,23.32
2019-06-27T08:50:50.336Z,24.40
2019-06-27T08:55:46.962Z,24.55
2019-06-27T09:00:45.849Z,23.92
2019-06-27T09:05:41.909Z,24.73
2019-06-27T09:10:38.260Z,24.08
2019-06-27T09:15:35.213Z,24.03
2019-06-27T09:20:31.456Z,24.11
2019-06-27T09:25:28.190Z,25.06
2019-06-27T09:30:24.930Z,25.78
2019-06-27T09:35:21.379Z,25.29
2019-06-27T09:40:17.708Z,25.77
2019-06-27T09:45:14.057Z,25.36
2019-06-27T09:50:11.115Z,25.35
2019-06-27T09:55:06.934Z,25.81
2019-06-27T10:00:02.669Z,24.11
2019-06-27T10:04:57.754Z,23.66
2019-06-27T10:09:53.577Z,23.93
2019-06-27T10:14:49.998Z,25.16
2019-06-27T10:19:47.423Z,24.74
2019-06-27T10:24:43.391Z,25.36
2019-06-27T10:29:39.790Z,25.40
2019-06-27T10:34:36.367Z,25.43
2019-06-27T10:39:33.453Z,25.11
2019-06-27T10:44:29.187Z,23.93
2019-06-27T10:49:25.709Z,24.43
2019-06-27T10:54:21.539Z,24.28
2019-06-27T10:59:17.467Z,24.40
2019-06-27T11:04:13.766Z,24.05
2019-06-27T11:09:10.249Z,24.81
2019-06-27T11:14:07.452Z,25.98
2019-06-27T11:19:04.143Z,26.07
2019-06-27T11:24:01.277Z,26.26
2019-06-27T11:28:57.490Z,25.68
2019-06-27T11:33:54.013Z,25.96
2019-06-27T11:38:51.346Z,26.40
2019-06-27T11:43:48.405Z,25.91
2019-06-27T11:48:44.224Z,26.51
2019-06-27T11:53:40.491Z,26.90
2019-06-27T11:58:36.869Z,27.29
2019-06-27T12:03:48.206Z,27.32
2019-06-27T12:08:32.442Z,27.29
2019-06-27T12:13:29.323Z,27.15
2019-06-27T12:18:24.969Z,27.45
2019-06-27T12:23:22.201Z,27.64
2019-06-27T12:28:17.847Z,27.52
2019-06-27T12:33:14.325Z,26.07
2019-06-27T12:38:08.698Z,25.68
2019-06-27T12:43:03.880Z,26.05
2019-06-27T12:48:06.679Z,26.41
2019-06-27T12:53:00.223Z,27.21
2019-06-27T12:57:57.135Z,26.78
2019-06-27T13:02:52.656Z,26.23
2019-06-27T13:07:48.108Z,26.56
2019-06-27T13:12:43.699Z,26.40
2019-06-27T13:17:39.536Z,26.36
2019-06-27T13:22:34.954Z,26.65
2019-06-27T13:27:30.978Z,27.15
2019-06-27T13:32:27.184Z,26.90
2019-06-27T13:37:23.192Z,26.71
2019-06-27T13:42:19.019Z,26.90
2019-06-27T13:47:15.199Z,25.78
2019-06-27T13:52:11.002Z,25.62
2019-06-27T13:57:07.669Z,25.46
2019-06-27T14:02:03.129Z,25.85
2019-06-27T14:06:59.070Z,25.68
2019-06-27T14:11:54.245Z,25.85
2019-06-27T14:16:49.618Z,25.35
2019-06-27T14:21:45.062Z,25.43
2019-06-27T14:26:40.698Z,25.33
2019-06-27T14:31:36.212Z,25.22
2019-06-27T14:36:31.770Z,25.35
2019-06-27T14:41:27.593Z,25.22
2019-06-27T14:46:23.413Z,24.92
2019-06-27T14:51:19.936Z,24.96
2019-06-27T14:56:15.686Z,24.69
2019-06-27T15:01:11.549Z,24.66
2019-06-27T15:06:07.515Z,24.51
2019-06-27T15:11:03.343Z,24.84
2019-06-27T15:16:11.154Z,24.78
2019-06-27T15:20:58.768Z,24.55
2019-06-27T15:25:54.726Z,24.21
2019-06-27T15:30:50.337Z,24.16
2019-06-27T15:35:52.204Z,24.02
2019-06-27T15:40:46.524Z,23.88
2019-06-27T15:45:42.481Z,23.83
2019-06-27T15:50:39.168Z,23.76
2019-06-27T15:55:34.511Z,23.76
2019-06-27T16:00:30.418Z,23.98
2019-06-27T16:05:26.671Z,23.92
2019-06-27T16:10:22.921Z,23.76
2019-06-27T16:15:18.846Z,23.88
2019-06-27T16:20:14.889Z,23.83
2019-06-27T16:25:11.831Z,23.51
2019-06-27T16:30:07.380Z,23.44
2019-06-27T16:35:03.267Z,23.61
2019-06-27T16:39:59.186Z,23.86
2019-06-27T16:44:55.417Z,23.77
2019-06-27T16:49:52.490Z,23.61
2019-06-27T16:54:48.902Z,23.48
2019-06-27T16:59:44.903Z,23.48
2019-06-27T17:04:41.952Z,23.47
2019-06-27T17:09:37.920Z,23.25
2019-06-27T17:14:33.562Z,23.02
2019-06-27T17:19:30.569Z,23.05
2019-06-27T17:24:26.277Z,23.03
2019-06-27T17:29:22.040Z,22.87
2019-06-27T17:34:18.227Z,22.66
2019-06-27T17:39:14.095Z,22.20
2019-06-27T17:44:09.762Z,22.45
2019-06-27T17:49:05.734Z,22.43
2019-06-27T17:54:01.365Z,22.29
2019-06-27T17:58:58.453Z,22.47
2019-06-27T18:03:53.970Z,22.20
2019-06-27T18:08:50.105Z,22.04
2019-06-27T18:13:46.326Z,22.02
2019-06-27T18:18:43.605Z,21.87
2019-06-27T18:23:39.198Z,21.96
2019-06-27T18:28:35.483Z,21.75
2019-06-27T18:33:31.732Z,21.58
2019-06-27T18:38:27.314Z,21.42
2019-06-27T18:43:23.008Z,21.57
2019-06-27T18:48:19.153Z,21.57
2019-06-27T18:53:14.978Z,21.46
2019-06-27T18:58:10.745Z,21.32
2019-06-27T19:03:06.793Z,21.14
2019-06-27T19:08:02.497Z,20.82
2019-06-27T19:12:58.178Z,20.67
2019-06-27T19:17:54.921Z,20.62
2019-06-27T19:22:50.772Z,20.29
2019-06-27T19:27:46.230Z,19.82
2019-06-27T19:32:42.328Z,19.67
2019-06-27T19:37:37.866Z,19.55
2019-06-27T19:42:33.627Z,19.67
2019-06-27T19:47:30.381Z,19.34
2019-06-27T19:52:25.662Z,18.90
2019-06-27T19:57:22.011Z,18.65
2019-06-27T20:02:17.245Z,18.53
2019-06-27T20:07:13.074Z,18.45
2019-06-27T20:12:08.889Z,18.59
2019-06-27T20:17:04.490Z,18.44
2019-06-27T20:22:01.215Z,18.20
2019-06-27T20:26:57.681Z,18.11
2019-06-27T20:31:52.906Z,18.29
2019-06-27T20:36:48.748Z,18.05
2019-06-27T20:41:44.706Z,18.00
2019-06-27T20:46:40.542Z,17.76
2019-06-27T20:51:36.763Z,17.87
2019-06-27T20:56:32.516Z,17.82
2019-06-27T21:01:31.351Z,17.56
2019-06-27T21:06:26.663Z,17.57
2019-06-27T21:11:22.586Z,17.60
2019-06-27T21:16:18.369Z,17.45
2019-06-27T21:21:14.216Z,17.09
2019-06-27T21:26:10.892Z,17.12
2019-06-27T21:31:06.420Z,16.93
2019-06-27T21:36:01.862Z,16.58
2019-06-27T21:40:57.843Z,16.61
2019-06-27T21:45:53.677Z,16.57
2019-06-27T21:50:49.318Z,16.38
2019-06-27T21:55:45.443Z,16.49
2019-06-27T22:00:41.288Z,16.24
2019-06-27T22:05:36.742Z,16.38
2019-06-27T22:10:33.135Z,16.31
2019-06-27T22:15:29.931Z,16.32
2019-06-27T22:20:26.393Z,16.23
2019-06-27T22:25:22.370Z,16.31
2019-06-27T22:30:17.930Z,16.01
2019-06-27T22:35:13.868Z,16.17
2019-06-27T22:40:09.881Z,16.33
2019-06-27T22:45:07.174Z,16.41
2019-06-27T22:50:02.772Z,16.42
2019-06-27T22:54:59.249Z,16.38
2019-06-27T22:59:55.780Z,16.51
2019-06-27T23:04:52.773Z,16.31
2019-06-27T23:09:56.830Z,16.10
2019-06-27T23:14:47.458Z,15.90
2019-06-27T23:19:43.899Z,16.08
2019-06-27T23:24:40.799Z,16.16
2019-06-27T23:29:36.271Z,15.67
2019-06-27T23:34:31.862Z,15.73
2019-06-27T23:39:28.787Z,15.80
2019-06-27T23:44:24.284Z,15.79
2019-06-27T23:49:20.196Z,15.82
2019-06-27T23:54:16.876Z,15.75
2019-06-27T23:59:12.470Z,15.83
